.
WxDataArchive / Data Records for 2016-01-02
2016-01-01 January 2016 2016-01-03

Data Records for Saturday, 02 January 2016

Time	Temp	Chill	HIndex	Humid	Dewpt	 Wind 	HiWind	WindDir	Rain 	Barom
-----	----	-----	------	-----	-----	------	------	-------	-----	-----
00:00	25.7	25.7	25.7	82	21.0	0	3	248	0.00	30.151 
00:05	25.8	25.8	25.8	82	21.1	1	3	248	0.00	30.151 
00:10	25.8	25.8	25.8	82	21.1	0	3	248	0.00	30.151 
00:15	26.0	26.0	26.0	82	21.3	1	4	248	0.00	30.146 
00:20	26.0	26.0	26.0	82	21.3	0	2	248	0.00	30.146 
00:25	26.0	26.0	26.0	82	21.3	0	3	248	0.00	30.146 
00:30	26.0	26.0	26.0	82	21.3	0	2	248	0.00	30.137 
00:35	26.0	26.0	26.0	82	21.3	0	3	248	0.00	30.137 
00:40	26.0	26.0	26.0	82	21.3	0	4	248	0.00	30.137 
00:45	26.0	26.0	26.0	83	21.6	0	2	248	0.00	30.132 
00:50	26.1	26.1	26.1	83	21.7	1	6	248	0.00	30.132 
00:55	26.3	26.3	26.3	82	21.6	0	2	248	0.00	30.132 
01:00	26.3	26.3	26.3	82	21.6	0	3	270	0.00	30.129 
01:05	26.1	26.1	26.1	82	21.4	0	1	270	0.00	30.129 
01:10	26.0	26.0	26.0	82	21.3	0	2	270	0.00	30.129 
01:15	26.0	26.0	26.0	83	21.6	0	2	270	0.00	30.117 
01:20	25.8	25.8	25.8	83	21.4	0	4	248	0.00	30.117 
01:25	25.8	25.8	25.8	83	21.4	0	1	248	0.00	30.117 
01:30	25.8	25.8	25.8	83	21.4	0	2	248	0.00	30.117 
01:35	25.8	25.8	25.8	83	21.4	0	1	248	0.00	30.117 
01:40	26.0	26.0	26.0	84	21.8	0	2	248	0.00	30.117 
01:45	26.0	26.0	26.0	84	21.8	0	2	248	0.00	30.116 
01:50	26.0	26.0	26.0	84	21.8	0	2	248	0.00	30.116 
01:55	26.1	26.1	26.1	84	21.9	0	2	248	0.00	30.116 
02:00	26.1	26.1	26.1	84	21.9	0	3	270	0.00	30.117 
02:05	26.3	26.3	26.3	84	22.1	0	2	270	0.00	30.117 
02:10	26.3	26.3	26.3	84	22.1	0	2	270	0.00	30.117 
02:15	26.3	26.3	26.3	84	22.1	0	3	270	0.00	30.115 
02:20	26.3	26.3	26.3	84	22.1	0	2	270	0.00	30.115 
02:25	26.3	26.3	26.3	84	22.1	1	5	270	0.00	30.115 
02:30	26.4	26.4	26.4	84	22.2	0	2	248	0.00	30.109 
02:35	26.4	26.4	26.4	84	22.2	1	3	248	0.00	30.109 
02:40	26.6	26.6	26.6	84	22.4	0	2	248	0.00	30.109 
02:45	26.6	26.6	26.6	84	22.4	0	2	248	0.00	30.104 
02:50	26.6	26.6	26.6	84	22.4	0	3	248	0.00	30.104 
02:55	26.6	26.6	26.6	84	22.4	1	2	248	0.00	30.104 
03:00	26.6	26.6	26.6	83	22.1	0	3	248	0.00	30.109 
03:05	26.7	26.7	26.7	83	22.2	0	2	248	0.00	30.109 
03:10	26.7	26.7	26.7	83	22.2	0	3	248	0.00	30.109 
03:15	26.7	26.7	26.7	83	22.2	1	4	248	0.00	30.105 
03:20	26.9	26.9	26.9	83	22.4	0	3	248	0.00	30.105 
03:25	26.9	26.9	26.9	83	22.4	0	3	248	0.00	30.105 
03:30	27.0	27.0	27.0	83	22.5	1	4	248	0.00	30.107 
03:35	27.0	27.0	27.0	83	22.5	0	2	248	0.00	30.107 
03:40	27.0	27.0	27.0	82	22.3	0	4	248	0.00	30.107 
03:45	27.2	27.2	27.2	82	22.4	0	2	248	0.00	30.103 
03:50	27.2	27.2	27.2	82	22.4	0	2	248	0.00	30.103 
03:55	27.2	27.2	27.2	82	22.4	1	4	248	0.00	30.103 
04:00	27.3	27.3	27.3	82	22.5	1	3	248	0.00	30.101 
04:05	27.5	27.5	27.5	82	22.7	1	3	248	0.00	30.101 
04:10	27.6	27.6	27.6	81	22.5	1	3	248	0.00	30.101 
04:15	27.8	27.8	27.8	81	22.7	1	3	248	0.00	30.095 
04:20	27.8	27.8	27.8	81	22.7	1	4	248	0.00	30.095 
04:25	27.9	27.9	27.9	81	22.8	1	3	248	0.00	30.095 
04:30	27.9	27.9	27.9	80	22.5	0	3	248	0.00	30.092 
04:35	27.8	27.8	27.8	80	22.4	1	4	248	0.00	30.092 
04:40	27.8	27.8	27.8	80	22.4	1	3	248	0.00	30.092 
04:45	27.8	27.8	27.8	80	22.4	1	3	248	0.00	30.085 
04:50	27.8	27.8	27.8	80	22.4	1	4	248	0.00	30.085 
04:55	27.6	27.6	27.6	80	22.3	1	3	248	0.00	30.085 
05:00	27.6	27.6	27.6	80	22.3	1	4	248	0.00	30.083 
05:05	27.6	27.6	27.6	80	22.3	1	4	248	0.00	30.083 
05:10	27.5	27.5	27.5	80	22.2	1	4	248	0.00	30.083 
05:15	27.5	27.5	27.5	80	22.2	1	3	248	0.00	30.083 
05:20	27.3	27.3	27.3	81	22.3	0	1	248	0.00	30.083 
05:25	27.2	27.2	27.2	81	22.2	0	3	248	0.00	30.083 
05:30	27.2	27.2	27.2	81	22.2	1	3	248	0.00	30.086 
05:35	27.2	27.2	27.2	81	22.2	0	3	248	0.00	30.086 
05:40	27.0	27.0	27.0	81	22.0	1	3	248	0.00	30.086 
05:45	27.0	27.0	27.0	81	22.0	1	4	248	0.00	30.089 
05:50	27.0	27.0	27.0	81	22.0	1	3	248	0.00	30.089 
05:55	27.0	27.0	27.0	81	22.0	1	3	248	0.00	30.089 
06:00	26.9	26.9	26.9	81	21.9	0	1	248	0.00	30.085 
06:05	26.7	26.7	26.7	81	21.7	0	3	248	0.00	30.085 
06:10	26.7	26.7	26.7	81	21.7	1	3	248	0.00	30.085 
06:15	26.6	26.6	26.6	81	21.6	1	4	248	0.00	30.090 
06:20	26.7	26.7	26.7	80	21.4	1	3	248	0.00	30.090 
06:25	26.6	26.6	26.6	80	21.3	1	4	248	0.00	30.090 
06:30	26.6	26.6	26.6	79	21.0	1	4	248	0.00	30.088 
06:35	26.6	26.6	26.6	78	20.7	1	4	270	0.00	30.088 
06:40	26.7	26.7	26.7	77	20.5	1	4	270	0.00	30.088 
06:45	26.7	26.7	26.7	77	20.5	2	4	270	0.00	30.085 
06:50	26.7	26.7	26.7	77	20.5	1	5	270	0.00	30.085 
06:55	26.6	26.6	26.6	76	20.1	0	2	270	0.00	30.085 
07:00	26.4	26.4	26.4	77	20.2	0	1	270	0.00	30.094 
07:05	26.3	26.3	26.3	77	20.1	0	2	270	0.00	30.094 
07:10	26.1	26.1	26.1	77	19.9	0	2	270	0.00	30.094 
07:15	26.1	26.1	26.1	78	20.2	0	2	270	0.00	30.097 
07:20	26.0	26.0	26.0	78	20.1	0	2	270	0.00	30.097 
07:25	26.0	26.0	26.0	79	20.4	1	3	270	0.00	30.097 
07:30	26.0	26.0	26.0	79	20.4	0	2	270	0.00	30.097 
07:35	26.0	26.0	26.0	80	20.7	1	2	270	0.00	30.097 
07:40	25.8	25.8	25.8	80	20.5	0	3	270	0.00	30.097 
07:45	25.7	25.7	25.7	80	20.4	0	2	270	0.00	30.100 
07:50	25.7	25.7	25.7	80	20.4	0	2	270	0.00	30.100 
07:55	25.6	25.6	25.6	80	20.3	1	3	270	0.00	30.100 
08:00	25.6	25.6	25.6	81	20.6	0	2	270	0.00	30.109 
08:05	25.4	25.4	25.4	81	20.4	1	3	270	0.00	30.109 
08:10	25.4	25.4	25.4	81	20.4	1	3	270	0.00	30.109 
08:15	25.3	25.3	25.3	81	20.3	0	2	270	0.00	30.113 
08:20	25.3	25.3	25.3	81	20.3	1	3	270	0.00	30.113 
08:25	25.3	25.3	25.3	81	20.3	0	2	270	0.00	30.113 
08:30	25.1	25.1	25.1	81	20.1	1	3	270	0.00	30.126 
08:35	25.1	25.1	25.1	81	20.1	1	2	270	0.00	30.126 
08:40	25.1	25.1	25.1	81	20.1	1	2	270	0.00	30.126 
08:45	25.1	25.1	25.1	81	20.1	0	3	270	0.00	30.128 
08:50	25.3	25.3	25.3	81	20.3	1	2	270	0.00	30.128 
08:55	25.3	25.3	25.3	81	20.3	1	3	270	0.00	30.128 
09:00	25.4	25.4	25.4	81	20.4	1	2	270	0.00	30.128 
09:05	25.4	25.4	25.4	81	20.4	1	3	270	0.00	30.128 
09:10	25.6	25.6	25.6	80	20.3	1	3	270	0.00	30.128 
09:15	25.7	25.7	25.7	80	20.4	1	4	270	0.00	30.129 
09:20	25.7	25.7	25.7	80	20.4	1	3	270	0.00	30.129 
09:25	25.8	25.8	25.8	80	20.5	1	3	270	0.00	30.129 
09:30	26.0	26.0	26.0	79	20.4	1	3	270	0.00	30.128 
09:35	26.1	26.1	26.1	79	20.5	1	3	270	0.00	30.128 
09:40	26.3	26.3	26.3	79	20.7	0	3	270	0.00	30.128 
09:45	26.4	26.4	26.4	78	20.5	1	4	270	0.00	30.116 
09:50	26.4	26.4	26.4	77	20.2	2	4	270	0.00	30.116 
09:55	26.4	26.4	26.4	77	20.2	1	4	270	0.00	30.116 
10:00	26.6	26.6	26.6	78	20.7	2	4	270	0.00	30.123 
10:05	26.7	26.7	26.7	77	20.5	1	4	270	0.00	30.123 
10:10	27.0	27.0	27.0	77	20.8	2	4	270	0.00	30.123 
10:15	27.2	27.2	27.2	77	21.0	2	4	270	0.00	30.128 
10:20	27.3	27.3	27.3	77	21.1	1	3	270	0.00	30.128 
10:25	27.5	27.5	27.5	77	21.3	2	4	270	0.00	30.128 
10:30	27.5	27.5	27.5	76	20.9	1	4	270	0.00	30.122 
10:35	27.3	27.3	27.3	76	20.8	2	4	270	0.00	30.122 
10:40	27.3	27.3	27.3	75	20.4	1	3	270	0.00	30.122 
10:45	27.5	27.5	27.5	75	20.6	1	3	270	0.00	30.124 
10:50	27.8	27.8	27.8	74	20.6	2	5	270	0.00	30.124 
10:55	27.8	27.8	27.8	73	20.3	1	4	270	0.00	30.124 
11:00	27.9	27.9	27.9	73	20.4	3	6	270	0.00	30.127 
11:05	28.1	28.1	28.1	72	20.3	1	3	270	0.00	30.127 
11:10	28.1	28.1	28.1	72	20.3	1	4	248	0.00	30.127 
11:15	28.1	28.1	28.1	72	20.3	1	3	248	0.00	30.127 
11:20	28.2	28.2	28.2	72	20.4	2	3	270	0.00	30.127 
11:25	28.5	28.5	28.5	71	20.3	1	3	270	0.00	30.127 
11:30	28.5	28.5	28.5	71	20.3	1	3	270	0.00	30.123 
11:35	28.4	28.4	28.4	71	20.2	1	4	270	0.00	30.123 
11:40	28.7	28.7	28.7	71	20.5	2	4	270	0.00	30.123 
11:45	29.1	29.1	29.1	71	20.9	2	3	270	0.00	30.112 
11:50	29.5	29.5	29.5	71	21.3	1	4	270	0.00	30.112 
11:55	30.0	30.0	30.0	70	21.4	1	4	270	0.00	30.112 
12:00	30.0	30.0	30.0	69	21.1	1	4	270	0.00	30.102 
12:05	30.0	30.0	30.0	69	21.1	1	4	248	0.00	30.102 
12:10	30.0	30.0	30.0	69	21.1	1	3	248	0.00	30.102 
12:15	30.0	30.0	30.0	69	21.1	1	3	248	0.00	30.095 
12:20	30.4	30.4	30.4	70	21.8	1	4	248	0.00	30.095 
12:25	30.7	30.7	30.7	69	21.8	1	5	248	0.00	30.095 
12:30	30.7	30.7	30.7	68	21.4	1	6	248	0.00	30.091 
12:35	30.9	30.9	30.9	68	21.6	1	5	248	0.00	30.091 
12:40	30.9	30.9	30.9	68	21.6	1	4	248	0.00	30.091 
12:45	30.9	30.9	30.9	68	21.6	1	6	248	0.00	30.078 
12:50	30.9	30.9	30.9	68	21.6	1	5	248	0.00	30.078 
12:55	30.9	30.9	30.9	69	21.9	1	6	248	0.00	30.078 
13:00	31.0	31.0	31.0	68	21.7	2	4	248	0.00	30.070 
13:05	31.0	31.0	31.0	68	21.7	2	5	248	0.00	30.070 
13:10	31.2	31.2	31.2	68	21.9	2	5	270	0.00	30.070 
13:15	31.5	31.5	31.5	68	22.2	1	3	270	0.00	30.063 
13:20	31.6	31.6	31.6	67	21.9	1	5	248	0.00	30.063 
13:25	31.8	31.8	31.8	67	22.1	1	4	248	0.00	30.063 
13:30	31.9	31.9	31.9	67	22.2	1	4	248	0.00	30.059 
13:35	32.1	32.1	32.1	67	22.4	2	4	248	0.00	30.059 
13:40	32.2	32.2	32.2	67	22.5	2	3	248	0.00	30.059 
13:45	32.4	32.4	32.4	67	22.7	1	5	270	0.00	30.053 
13:50	32.8	32.8	32.8	67	23.1	1	5	270	0.00	30.053 
13:55	33.1	33.1	33.1	66	23.0	1	5	248	0.00	30.053 
14:00	32.9	32.9	32.9	66	22.8	2	6	270	0.00	30.047 
14:05	33.2	33.2	33.2	66	23.1	1	4	292	0.00	30.047 
14:10	33.5	33.5	33.5	65	23.0	1	4	292	0.00	30.047 
14:15	33.5	33.5	33.5	65	23.0	1	4	248	0.00	30.042 
14:20	33.8	33.8	33.8	65	23.3	1	4	248	0.00	30.042 
14:25	33.8	33.8	33.8	64	22.9	1	5	248	0.00	30.042 
14:30	33.8	33.8	33.8	64	22.9	1	5	248	0.00	30.035 
14:35	34.0	34.0	34.0	64	23.1	1	5	248	0.00	30.035 
14:40	34.1	34.1	34.1	64	23.2	1	4	248	0.00	30.035 
14:45	34.1	34.1	34.1	64	23.2	2	5	292	0.00	30.029 
14:50	34.3	34.3	34.3	64	23.4	2	4	270	0.00	30.029 
14:55	34.4	34.4	34.4	63	23.1	2	5	248	0.00	30.029 
15:00	34.6	34.6	34.6	63	23.3	1	4	248	0.00	30.026 
15:05	34.7	34.7	34.7	63	23.4	1	4	248	0.00	30.026 
15:10	34.7	34.7	34.7	63	23.4	2	5	270	0.00	30.026 
15:15	34.7	34.7	34.7	63	23.4	1	5	292	0.00	30.026 
15:20	34.9	34.9	34.9	64	24.0	1	3	292	0.00	30.026 
15:25	34.9	34.9	34.9	63	23.6	1	4	248	0.00	30.026 
15:30	34.9	34.9	34.9	64	24.0	2	5	248	0.00	30.026 
15:35	34.9	34.9	34.9	63	23.6	2	4	270	0.00	30.026 
15:40	34.9	34.9	34.9	64	24.0	1	3	270	0.00	30.026 
15:45	34.9	34.9	34.9	64	24.0	1	3	270	0.00	30.018 
15:50	34.9	34.9	34.9	64	24.0	1	3	270	0.00	30.018 
15:55	35.0	35.0	35.0	64	24.1	1	3	270	0.00	30.018 
16:00	34.9	34.9	34.9	64	24.0	1	3	270	0.00	30.011 
16:05	34.9	34.9	34.9	64	24.0	1	4	270	0.00	30.011 
16:10	34.7	34.7	34.7	63	23.4	1	5	248	0.00	30.011 
16:15	34.6	34.6	34.6	63	23.3	1	5	248	0.00	30.013 
16:20	34.3	34.3	34.3	63	23.0	2	5	248	0.00	30.013 
16:25	34.1	34.1	34.1	64	23.2	1	4	248	0.00	30.013 
16:30	34.1	34.1	34.1	64	23.2	0	2	248	0.00	30.014 
16:35	34.1	34.1	34.1	64	23.2	0	1	248	0.00	30.014 
16:40	34.1	34.1	34.1	64	23.2	0	2	248	0.00	30.014 
16:45	34.0	34.0	34.0	64	23.1	1	5	248	0.00	30.013 
16:50	33.8	33.8	33.8	64	22.9	1	4	248	0.00	30.013 
16:55	33.7	33.7	33.7	64	22.8	0	3	248	0.00	30.013 
17:00	33.5	33.5	33.5	65	23.0	1	3	248	0.00	30.010 
17:05	33.4	33.4	33.4	65	22.9	0	2	248	0.00	30.010 
17:10	33.2	33.2	33.2	66	23.1	1	3	248	0.00	30.010 
17:15	33.1	33.1	33.1	66	23.0	1	6	248	0.00	30.011 
17:20	32.9	32.9	32.9	66	22.8	0	3	248	0.00	30.011 
17:25	32.8	32.8	32.8	66	22.7	0	3	248	0.00	30.011 
17:30	32.5	32.5	32.5	67	22.8	0	2	248	0.00	30.009 
17:35	32.4	32.4	32.4	67	22.7	0	2	248	0.00	30.009 
17:40	32.2	32.2	32.2	68	22.8	0	3	248	0.00	30.009 
17:45	32.2	32.2	32.2	69	23.2	0	2	248	0.00	30.009 
17:50	31.9	31.9	31.9	69	22.9	0	2	248	0.00	30.009 
17:55	31.9	31.9	31.9	70	23.2	0	2	248	0.00	30.009 
18:00	31.8	31.8	31.8	71	23.5	0	3	248	0.00	30.002 
18:05	31.6	31.6	31.6	72	23.6	0	2	248	0.00	30.002 
18:10	31.5	31.5	31.5	72	23.5	0	3	248	0.00	30.002 
18:15	31.5	31.5	31.5	73	23.9	0	3	270	0.00	29.997 
18:20	31.5	31.5	31.5	73	23.9	1	3	270	0.00	29.997 
18:25	31.5	31.5	31.5	73	23.9	0	3	270	0.00	29.997 
18:30	31.5	31.5	31.5	74	24.2	1	4	248	0.00	29.997 
18:35	31.5	31.5	31.5	74	24.2	1	5	248	0.00	29.997 
18:40	31.5	31.5	31.5	74	24.2	1	3	270	0.00	29.997 
18:45	31.5	31.5	31.5	74	24.2	1	3	270	0.00	30.000 
18:50	31.5	31.5	31.5	74	24.2	1	4	270	0.00	30.000 
18:55	31.5	31.5	31.5	74	24.2	1	3	248	0.00	30.000 
19:00	31.5	31.5	31.5	74	24.2	1	4	248	0.00	29.990 
19:05	31.5	31.5	31.5	74	24.2	0	4	248	0.00	29.990 
19:10	31.3	31.3	31.3	74	24.0	1	3	248	0.00	29.990 
19:15	31.3	31.3	31.3	75	24.3	1	3	248	0.00	29.985 
19:20	31.3	31.3	31.3	75	24.3	1	4	248	0.00	29.985 
19:25	31.5	31.5	31.5	75	24.5	1	3	248	0.00	29.985 
19:30	31.5	31.5	31.5	75	24.5	1	4	248	0.00	29.982 
19:35	31.3	31.3	31.3	75	24.3	1	4	248	0.00	29.982 
19:40	31.5	31.5	31.5	75	24.5	1	5	248	0.00	29.982 
19:45	31.3	31.3	31.3	75	24.3	1	4	248	0.00	29.980 
19:50	31.3	31.3	31.3	76	24.6	1	4	248	0.00	29.980 
19:55	31.3	31.3	31.3	77	24.9	1	4	248	0.00	29.980 
20:00	31.2	31.2	31.2	77	24.8	1	3	248	0.00	29.970 
20:05	31.3	31.3	31.3	77	24.9	1	3	248	0.00	29.970 
20:10	31.3	31.3	31.3	78	25.3	2	6	248	0.00	29.970 
20:15	31.3	31.3	31.3	77	24.9	1	3	270	0.00	29.969 
20:20	31.3	31.3	31.3	78	25.3	2	5	248	0.00	29.969 
20:25	31.5	31.5	31.5	78	25.4	2	6	248	0.00	29.969 
20:30	31.5	31.5	31.5	78	25.4	1	7	248	0.00	29.965 
20:35	31.5	31.5	31.5	78	25.4	2	5	248	0.00	29.965 
20:40	31.5	31.5	31.5	78	25.4	2	7	248	0.00	29.965 
20:45	31.5	31.5	31.5	78	25.4	2	9	248	0.00	29.953 
20:50	31.6	31.6	31.6	78	25.5	2	9	248	0.00	29.953 
20:55	31.5	31.5	31.5	78	25.4	2	5	248	0.00	29.953 
21:00	31.6	31.6	31.6	78	25.5	2	8	270	0.00	29.951 
21:05	31.5	31.5	31.5	78	25.4	1	5	270	0.00	29.951 
21:10	31.5	31.5	31.5	78	25.4	2	5	248	0.00	29.951 
21:15	31.5	31.5	31.5	78	25.4	2	7	248	0.00	29.940 
21:20	31.5	31.5	31.5	78	25.4	2	5	248	0.00	29.940 
21:25	31.5	31.5	31.5	78	25.4	1	4	248	0.00	29.940 
21:30	31.3	31.3	31.3	78	25.3	2	7	248	0.00	29.934 
21:35	31.3	31.3	31.3	78	25.3	2	7	248	0.00	29.934 
21:40	31.3	31.3	31.3	78	25.3	2	6	248	0.00	29.934 
21:45	31.5	31.5	31.5	78	25.4	2	6	248	0.00	29.933 
21:50	31.5	31.5	31.5	78	25.4	1	4	248	0.00	29.933 
21:55	31.3	31.3	31.3	78	25.3	1	4	248	0.00	29.933 
22:00	31.3	31.3	31.3	78	25.3	2	5	248	0.00	29.933 
22:05	31.3	31.3	31.3	78	25.3	2	5	248	0.00	29.933 
22:10	31.3	31.3	31.3	78	25.3	1	4	248	0.00	29.933 
22:15	31.3	31.3	31.3	78	25.3	2	6	248	0.00	29.918 
22:20	31.3	31.3	31.3	78	25.3	1	6	248	0.00	29.918 
22:25	31.3	31.3	31.3	78	25.3	2	5	248	0.00	29.918 
22:30	31.3	31.3	31.3	78	25.3	2	6	248	0.00	29.917 
22:35	31.3	31.3	31.3	78	25.3	1	4	248	0.00	29.917 
22:40	31.3	31.3	31.3	78	25.3	1	5	248	0.00	29.917 
22:45	31.3	31.3	31.3	78	25.3	2	6	248	0.00	29.919 
22:50	31.3	31.3	31.3	78	25.3	2	6	248	0.00	29.919 
22:55	31.5	31.5	31.5	78	25.4	2	6	248	0.00	29.919 
23:00	31.5	31.5	31.5	78	25.4	3	7	248	0.00	29.917 
23:05	31.5	31.5	31.5	78	25.4	2	5	248	0.00	29.917 
23:10	31.5	31.5	31.5	78	25.4	3	9	248	0.00	29.917 
23:15	31.3	31.3	31.3	78	25.3	2	6	248	0.00	29.929 
23:20	31.3	31.3	31.3	79	25.6	2	6	248	0.00	29.929 
23:25	31.3	31.3	31.3	79	25.6	3	11	248	0.00	29.929 
23:30	31.3	31.3	31.3	79	25.6	3	9	248	0.00	29.900 
23:35	31.2	31.2	31.2	79	25.5	2	5	248	0.00	29.900 
23:40	31.2	31.2	31.2	79	25.5	2	10	248	0.00	29.900 
23:45	31.0	31.0	31.0	80	25.6	2	5	248	0.00	29.898 
23:50	31.0	31.0	31.0	80	25.6	2	7	248	0.00	29.898 
23:55	31.0	31.0	31.0	80	25.6	2	7	248	0.00	29.898 

CoCoRaHS
IN-AL-39
A2 Web Hosting
Creative Commons License
GoDaddy
search engine by freefind advanced

loaded 2018-11-13 21:12:40 • last modified 2010-11-18 10:43:29
Privacy PolicyDisclaimer
• wx.awcolley.com is powered by PmWiki v.2002016 •
• all content (unless otherwise noted) © 2018 A W Colley